Sheffield, Vermont
Current Conditions -  °F | °C
As of 12:35 PM on Sunday 23 Nov 2014 (Local Time) from KCDA Reporting Station
Overcast Overcast  
Wind Chill: 34°   Ceiling: 1400
Heat Index: 39°   Visibility: 7mi
Dew Point: 37°   Wind: 7mph
Humidity: 89%   Direction: 130°SE
Pressure: 30.05"   Gusts: NA
Location:  44.6°N, 72.11°W
Report Text: KCDA 231735Z AUTO 13006KT 7SM OVC014 04/03 A3005 RMK AO2 T00410025
Loading
Personal Weather Stations






























Interactive Weather Map New forecast layout! Learn more

10-Day Weather Forecast

Advertisements
Track Severe Weather on mobile